Time;durP1;ratioP1;P1;durP2;ratioP2;P2;SDS_P1;SDS_P2;PMS_P1;PMS_P2;Temp;Humidity;BMP_temperature;BMP_pressure;BME280_temperature;BME280_humidity;BME280_pressure;Samples;Min_cycle;Max_cycle;Signal;HPM_P1;HPM_P2
2022/12/14 00:02:08;;;;;;;37.33;19.90;;;;;;;;;;6268496;28;20053;-73
2022/12/14 00:05:11;;;;;;;37.28;20.00;;;;;;;;;;6262759;28;20041;-72
2022/12/14 00:08:15;;;;;;;35.00;20.83;;;;;;;;;;6266450;28;20075;-73
2022/12/14 00:11:18;;;;;;;37.22;20.33;;;;;;;;;;6265299;28;20225;-74
2022/12/14 00:14:20;;;;;;;31.63;19.85;;;;;;;;;;6264047;28;20095;-72
2022/12/14 00:17:22;;;;;;;39.78;20.58;;;;;;;;;;6271169;28;20056;-71
2022/12/14 00:20:26;;;;;;;38.97;21.58;;;;;;;;;;6266234;28;20053;-71
2022/12/14 00:23:28;;;;;;;36.83;20.63;;;;;;;;;;6264617;28;20325;-72
2022/12/14 00:26:31;;;;;;;35.63;20.58;;;;;;;;;;6263355;28;20049;-71
2022/12/14 00:29:32;;;;;;;38.72;20.98;;;;;;;;;;6271604;28;20048;-71
2022/12/14 00:32:34;;;;;;;32.45;18.90;;;;;;;;;;6269650;28;20272;-71
2022/12/14 00:35:37;;;;;;;35.97;19.75;;;;;;;;;;6264340;28;20064;-71
2022/12/14 00:38:39;;;;;;;35.63;19.42;;;;;;;;;;6262118;28;20059;-71
2022/12/14 00:41:42;;;;;;;35.70;18.48;;;;;;;;;;6258957;28;20099;-71
2022/12/14 00:44:43;;;;;;;33.83;17.25;;;;;;;;;;6264261;28;20057;-72
2022/12/14 00:47:45;;;;;;;34.50;18.80;;;;;;;;;;6267540;28;20288;-71
2022/12/14 00:50:49;;;;;;;35.97;18.90;;;;;;;;;;6262797;28;20056;-71
2022/12/14 00:53:51;;;;;;;33.55;18.08;;;;;;;;;;6267316;28;20053;-71
2022/12/14 00:56:53;;;;;;;36.65;18.58;;;;;;;;;;6267112;28;20052;-71
2022/12/14 00:59:54;;;;;;;36.88;19.48;;;;;;;;;;6268908;28;20057;-71
2022/12/14 01:02:56;;;;;;;34.35;18.05;;;;;;;;;;6266393;28;20058;-71
2022/12/14 01:05:59;;;;;;;34.13;17.95;;;;;;;;;;6265021;28;20296;-71
2022/12/14 01:09:01;;;;;;;35.95;17.45;;;;;;;;;;6267692;28;20098;-71
2022/12/14 01:12:03;;;;;;;37.63;19.15;;;;;;;;;;6263230;28;20068;-71
2022/12/14 01:15:05;;;;;;;37.05;17.17;;;;;;;;;;6261869;28;20045;-71
2022/12/14 01:18:07;;;;;;;31.45;17.15;;;;;;;;;;6264129;28;20061;-71
2022/12/14 01:21:13;;;;;;;37.97;17.90;;;;;;;;;;6268213;28;20087;-71
2022/12/14 01:24:14;;;;;;;31.90;16.23;;;;;;;;;;6266329;28;20245;-71
2022/12/14 01:27:16;;;;;;;28.92;16.45;;;;;;;;;;6262443;28;20114;-71
2022/12/14 01:30:18;;;;;;;34.45;17.73;;;;;;;;;;6264272;28;20149;-71
2022/12/14 01:33:20;;;;;;;32.80;16.52;;;;;;;;;;6268868;28;20076;-71
2022/12/14 01:36:25;;;;;;;33.00;15.93;;;;;;;;;;6260898;28;20053;-71
2022/12/14 01:39:27;;;;;;;32.25;16.67;;;;;;;;;;6267285;28;20114;-71
2022/12/14 01:42:28;;;;;;;29.00;16.33;;;;;;;;;;6264231;28;20045;-71
2022/12/14 01:45:30;;;;;;;31.63;16.20;;;;;;;;;;6264654;28;20351;-71
2022/12/14 01:48:32;;;;;;;31.17;16.08;;;;;;;;;;6266237;28;20045;-71
2022/12/14 01:51:36;;;;;;;30.40;18.10;;;;;;;;;;6264376;28;20636;-71
2022/12/14 01:54:40;;;;;;;;;;;;;;;;;;6265657;28;20048;-71
2022/12/14 01:57:45;;;;;;;30.02;15.77;;;;;;;;;;6263363;28;19995;-71
2022/12/14 02:00:46;;;;;;;34.28;16.83;;;;;;;;;;6265878;28;20134;-71
2022/12/14 02:03:50;;;;;;;33.05;16.55;;;;;;;;;;6262655;28;20110;-71
2022/12/14 02:06:54;;;;;;;34.67;17.20;;;;;;;;;;6264543;28;20056;-72
2022/12/14 02:09:57;;;;;;;31.13;17.33;;;;;;;;;;6265594;28;20056;-71
2022/12/14 02:13:03;;;;;;;27.40;15.80;;;;;;;;;;6259958;28;20115;-71
2022/12/14 02:16:06;;;;;;;30.15;16.42;;;;;;;;;;6262875;28;20057;-71
2022/12/14 02:19:07;;;;;;;29.27;15.82;;;;;;;;;;6267477;28;20049;-71
2022/12/14 02:22:30;;;;;;;33.28;18.23;;;;;;;;;;6260121;28;20041;-72
2022/12/14 02:26:02;;;;;;;33.25;17.90;;;;;;;;;;6262103;28;20065;-71
2022/12/14 02:29:37;;;;;;;32.70;16.98;;;;;;;;;;6266455;28;20349;-71
2022/12/14 02:33:08;;;;;;;27.67;15.45;;;;;;;;;;6264524;28;20067;-71
2022/12/14 02:36:13;;;;;;;30.42;16.52;;;;;;;;;;6265943;28;20068;-71
2022/12/14 02:39:22;;;;;;;28.77;16.35;;;;;;;;;;6265118;28;20099;-71
2022/12/14 02:42:29;;;;;;;29.05;16.70;;;;;;;;;;6261300;28;20333;-71
2022/12/14 02:45:37;;;;;;;31.30;17.88;;;;;;;;;;6265780;28;20098;-71
2022/12/14 02:48:41;;;;;;;31.90;17.13;;;;;;;;;;6262344;28;20061;-71
2022/12/14 02:51:51;;;;;;;31.33;16.92;;;;;;;;;;6262783;28;20057;-71
2022/12/14 02:54:56;;;;;;;30.77;16.73;;;;;;;;;;6263451;28;20057;-71
2022/12/14 02:57:58;;;;;;;;;;;;;;;;;;6264398;28;20056;-71
2022/12/14 03:01:01;;;;;;;34.70;19.10;;;;;;;;;;6268462;28;19940;-71
2022/12/14 03:04:03;;;;;;;33.80;17.35;;;;;;;;;;6265935;28;20048;-71
2022/12/14 03:07:25;;;;;;;34.17;17.27;;;;;;;;;;6263698;28;20049;-71
2022/12/14 03:10:33;;;;;;;30.85;16.77;;;;;;;;;;6263556;28;20133;-71
2022/12/14 03:13:38;;;;;;;38.05;18.00;;;;;;;;;;6266509;28;20076;-71
2022/12/14 03:16:43;;;;;;;31.60;16.73;;;;;;;;;;6260977;28;20060;-72
2022/12/14 03:19:48;;;;;;;30.45;17.73;;;;;;;;;;6270199;28;20045;-71
2022/12/14 03:22:53;;;;;;;29.60;17.65;;;;;;;;;;6270649;28;20053;-71
2022/12/14 03:25:59;;;;;;;30.65;18.48;;;;;;;;;;6271552;28;20233;-71
2022/12/14 03:29:06;;;;;;;30.50;15.98;;;;;;;;;;6262131;28;20053;-71
2022/12/14 03:32:10;;;;;;;31.08;17.45;;;;;;;;;;6267499;28;20048;-71
2022/12/14 03:35:15;;;;;;;33.97;17.95;;;;;;;;;;6270601;28;20046;-71
2022/12/14 03:38:21;;;;;;;33.03;17.80;;;;;;;;;;6264824;28;20061;-71
2022/12/14 03:41:28;;;;;;;33.45;18.23;;;;;;;;;;6266111;28;20048;-71
2022/12/14 03:44:36;;;;;;;28.65;16.77;;;;;;;;;;6265924;28;20393;-71
2022/12/14 03:47:53;;;;;;;32.10;17.25;;;;;;;;;;6272395;28;20110;-71
2022/12/14 03:51:01;;;;;;;29.83;16.05;;;;;;;;;;6270842;28;20049;-71
2022/12/14 03:54:07;;;;;;;30.50;17.48;;;;;;;;;;6267594;28;20331;-71
2022/12/14 03:57:16;;;;;;;31.70;16.88;;;;;;;;;;6268365;28;20053;-71
2022/12/14 04:00:21;;;;;;;31.10;17.08;;;;;;;;;;6268949;28;20044;-71
2022/12/14 04:03:28;;;;;;;40.35;19.15;;;;;;;;;;6261732;28;20094;-71
2022/12/14 04:06:37;;;;;;;35.08;18.15;;;;;;;;;;6269167;28;20047;-71
2022/12/14 04:09:44;;;;;;;30.90;17.10;;;;;;;;;;6267617;28;20060;-71
2022/12/14 04:19:42;;;;;;;36.97;18.85;;;;;;;;;;6191480;28;20138;-71
2022/12/14 04:22:47;;;;;;;34.25;19.08;;;;;;;;;;6191811;28;20060;-72
2022/12/14 04:26:03;;;;;;;35.38;19.13;;;;;;;;;;6192386;28;20367;-71
2022/12/14 04:32:31;;;;;;;31.25;18.00;;;;;;;;;;6198885;28;20054;-71
2022/12/14 04:35:36;;;;;;;39.85;20.80;;;;;;;;;;6191636;28;20038;-71
2022/12/14 04:38:38;;;;;;;40.47;19.10;;;;;;;;;;6195402;28;20462;-71
2022/12/14 04:41:41;;;;;;;40.58;20.98;;;;;;;;;;6191047;28;20046;-71
2022/12/14 04:44:48;;;;;;;42.88;20.35;;;;;;;;;;6191858;28;20046;-72
2022/12/14 04:47:56;;;;;;;37.53;20.27;;;;;;;;;;6193960;28;20401;-71
2022/12/14 04:51:03;;;;;;;41.10;22.42;;;;;;;;;;6195729;28;20054;-71
2022/12/14 04:54:13;;;;;;;35.58;19.77;;;;;;;;;;6241163;28;20272;-71
2022/12/14 04:57:20;;;;;;;35.25;19.95;;;;;;;;;;6265829;28;20061;-71
2022/12/14 05:00:22;;;;;;;36.30;19.25;;;;;;;;;;6265958;28;20052;-71
2022/12/14 05:03:27;;;;;;;37.92;21.98;;;;;;;;;;6266855;28;20164;-71
2022/12/14 05:06:35;;;;;;;34.13;19.98;;;;;;;;;;6267660;28;20065;-71
2022/12/14 05:09:39;;;;;;;36.85;19.63;;;;;;;;;;6265638;28;20053;-71
2022/12/14 05:12:46;;;;;;;38.50;20.52;;;;;;;;;;6262968;28;20240;-71
2022/12/14 05:15:50;;;;;;;41.55;23.13;;;;;;;;;;6267594;28;20120;-71
2022/12/14 05:18:51;;;;;;;35.05;19.17;;;;;;;;;;6266825;28;20056;-71
2022/12/14 05:21:55;;;;;;;39.30;21.45;;;;;;;;;;6264982;28;20041;-71
2022/12/14 05:24:57;;;;;;;44.33;22.40;;;;;;;;;;6264108;28;20072;-71
2022/12/14 05:27:58;;;;;;;38.63;21.30;;;;;;;;;;6265536;28;20280;-71
2022/12/14 05:31:00;;;;;;;41.80;21.58;;;;;;;;;;6264273;28;20061;-71
2022/12/14 05:34:02;;;;;;;41.38;22.63;;;;;;;;;;6265216;28;20060;-73
2022/12/14 05:37:05;;;;;;;41.28;21.98;;;;;;;;;;6265725;28;20045;-74
2022/12/14 05:40:08;;;;;;;47.33;23.98;;;;;;;;;;6266045;28;20061;-71
2022/12/14 05:43:12;;;;;;;41.40;22.63;;;;;;;;;;6266558;28;20057;-71
2022/12/14 05:46:13;;;;;;;45.17;23.10;;;;;;;;;;6263846;28;20349;-70
2022/12/14 05:49:15;;;;;;;41.63;23.08;;;;;;;;;;6264164;28;20058;-73
2022/12/14 05:52:19;;;;;;;41.80;22.08;;;;;;;;;;6261231;28;20061;-70
2022/12/14 05:55:20;;;;;;;40.67;23.20;;;;;;;;;;6262056;28;20053;-71
2022/12/14 05:58:22;;;;;;;38.33;22.52;;;;;;;;;;6262123;28;20057;-70
2022/12/14 06:01:24;;;;;;;44.15;23.58;;;;;;;;;;6264319;28;20052;-70
2022/12/14 06:04:25;;;;;;;37.95;22.23;;;;;;;;;;6266035;28;20061;-70
2022/12/14 06:07:28;;;;;;;41.95;21.77;;;;;;;;;;6264644;28;20068;-70
2022/12/14 06:10:30;;;;;;;39.92;22.25;;;;;;;;;;6265049;28;20064;-72
2022/12/14 06:13:32;;;;;;;44.80;22.48;;;;;;;;;;6265468;28;20041;-70
2022/12/14 06:16:34;;;;;;;38.55;21.38;;;;;;;;;;6263942;28;20057;-70
2022/12/14 06:19:35;;;;;;;38.17;22.13;;;;;;;;;;6262390;28;20433;-73
2022/12/14 06:22:39;;;;;;;39.35;22.15;;;;;;;;;;6266446;28;20073;-70
2022/12/14 06:25:40;;;;;;;42.83;22.42;;;;;;;;;;6264438;28;20141;-70
2022/12/14 06:28:42;;;;;;;39.88;22.23;;;;;;;;;;6260164;28;20049;-70
2022/12/14 06:31:44;;;;;;;44.35;22.27;;;;;;;;;;6265470;28;20045;-70
2022/12/14 06:34:46;;;;;;;39.80;22.35;;;;;;;;;;6264206;28;20056;-71
2022/12/14 06:37:49;;;;;;;38.35;22.25;;;;;;;;;;6264540;28;20127;-71
2022/12/14 06:40:51;;;;;;;38.05;20.92;;;;;;;;;;6261869;28;20045;-70
2022/12/14 06:43:53;;;;;;;41.95;21.95;;;;;;;;;;6264657;28;20064;-72
2022/12/14 06:46:55;;;;;;;40.50;22.20;;;;;;;;;;6267253;28;20330;-71
2022/12/14 06:49:56;;;;;;;41.05;21.60;;;;;;;;;;6269660;28;20387;-70
2022/12/14 06:53:00;;;;;;;46.05;23.00;;;;;;;;;;6268677;28;20053;-71
2022/12/14 06:56:07;;;;;;;39.55;21.70;;;;;;;;;;6267233;28;20065;-71
2022/12/14 06:59:09;;;;;;;40.22;21.35;;;;;;;;;;6267472;28;20117;-71
2022/12/14 07:02:11;;;;;;;40.42;20.70;;;;;;;;;;6269079;28;20114;-70
2022/12/14 07:05:12;;;;;;;42.20;20.90;;;;;;;;;;6265250;28;20108;-73
2022/12/14 07:08:15;;;;;;;37.97;20.63;;;;;;;;;;6271174;28;20056;-71
2022/12/14 07:11:17;;;;;;;41.40;21.63;;;;;;;;;;6266032;28;20084;-71
2022/12/14 07:14:19;;;;;;;41.38;22.30;;;;;;;;;;6270604;28;20287;-71
2022/12/14 07:17:21;;;;;;;42.85;22.70;;;;;;;;;;6270296;28;20045;-71
2022/12/14 07:20:23;;;;;;;42.42;21.90;;;;;;;;;;6267310;28;20051;-73
2022/12/14 07:23:27;;;;;;;38.58;20.52;;;;;;;;;;6267782;28;20394;-73
2022/12/14 07:26:29;;;;;;;39.35;21.45;;;;;;;;;;6268551;28;20056;-71
2022/12/14 07:29:31;;;;;;;36.85;20.80;;;;;;;;;;6266265;28;20056;-72
2022/12/14 07:32:33;;;;;;;38.13;21.80;;;;;;;;;;6270394;28;20061;-72
2022/12/14 07:35:35;;;;;;;41.33;21.42;;;;;;;;;;6267407;28;20053;-71
2022/12/14 07:38:40;;;;;;;41.45;21.67;;;;;;;;;;6266913;28;20056;-73
2022/12/14 07:41:42;;;;;;;41.92;21.85;;;;;;;;;;6264906;28;20324;-71
2022/12/14 07:44:43;;;;;;;44.97;23.30;;;;;;;;;;6268213;28;20144;-72
2022/12/14 07:47:45;;;;;;;41.75;21.35;;;;;;;;;;6265956;28;20099;-71
2022/12/14 07:50:47;;;;;;;44.95;21.65;;;;;;;;;;6268664;28;20048;-71
2022/12/14 07:53:51;;;;;;;43.70;22.05;;;;;;;;;;6266921;28;20188;-71
2022/12/14 07:56:52;;;;;;;39.65;20.77;;;;;;;;;;6267473;28;20052;-71
2022/12/14 07:59:54;;;;;;;42.30;21.40;;;;;;;;;;6266139;28;20391;-71
2022/12/14 08:02:55;;;;;;;39.40;21.45;;;;;;;;;;6268302;28;20056;-71
2022/12/14 08:05:57;;;;;;;40.00;20.13;;;;;;;;;;6268783;28;20049;-71
2022/12/14 08:09:00;;;;;;;41.67;21.45;;;;;;;;;;6267699;28;20237;-71
2022/12/14 08:12:02;;;;;;;36.83;20.08;;;;;;;;;;6266732;28;20052;-73
2022/12/14 08:15:05;;;;;;;39.78;22.10;;;;;;;;;;6266971;28;20149;-71
2022/12/14 08:18:06;;;;;;;37.00;19.92;;;;;;;;;;6268459;28;20041;-73
2022/12/14 08:21:10;;;;;;;38.95;20.27;;;;;;;;;;6266847;28;20060;-73
2022/12/14 08:24:13;;;;;;;38.95;20.75;;;;;;;;;;6265790;28;20074;-73
2022/12/14 08:27:15;;;;;;;37.33;19.95;;;;;;;;;;6269218;28;20105;-72
2022/12/14 08:30:17;;;;;;;38.40;20.48;;;;;;;;;;6264546;28;20113;-73
2022/12/14 08:33:19;;;;;;;39.92;21.63;;;;;;;;;;6267089;28;20057;-73
2022/12/14 08:36:23;;;;;;;39.67;20.88;;;;;;;;;;6267450;28;20057;-73
2022/12/14 08:39:26;;;;;;;43.88;20.08;;;;;;;;;;6270803;28;20049;-73
2022/12/14 08:42:27;;;;;;;39.65;20.45;;;;;;;;;;6266656;28;20045;-73
2022/12/14 08:45:29;;;;;;;43.28;21.30;;;;;;;;;;6264554;28;20053;-73
2022/12/14 08:48:31;;;;;;;45.17;22.13;;;;;;;;;;6265008;28;20044;-73
2022/12/14 08:51:36;;;;;;;42.53;21.25;;;;;;;;;;6265866;28;20050;-73
2022/12/14 08:54:39;;;;;;;41.50;21.75;;;;;;;;;;6267220;28;20261;-73
2022/12/14 08:57:40;;;;;;;41.15;21.10;;;;;;;;;;6264698;28;20075;-73
2022/12/14 09:00:44;;;;;;;41.38;21.83;;;;;;;;;;6267643;28;20068;-73
2022/12/14 09:03:46;;;;;;;37.20;20.05;;;;;;;;;;6265830;28;20068;-73
2022/12/14 09:06:48;;;;;;;44.88;22.67;;;;;;;;;;6264624;28;20053;-73
2022/12/14 09:09:51;;;;;;;39.50;21.30;;;;;;;;;;6269979;28;20049;-73
2022/12/14 09:12:53;;;;;;;42.05;22.17;;;;;;;;;;6270413;28;20048;-73
2022/12/14 09:15:59;;;;;;;39.90;21.83;;;;;;;;;;6265729;28;20363;-73
2022/12/14 09:19:01;;;;;;;44.28;21.98;;;;;;;;;;6263278;28;20071;-73
2022/12/14 09:22:02;;;;;;;43.30;23.40;;;;;;;;;;6265698;28;20097;-73
2022/12/14 09:25:08;;;;;;;42.80;20.65;;;;;;;;;;6265403;28;20168;-73
2022/12/14 09:28:09;;;;;;;38.20;21.77;;;;;;;;;;6264997;28;20049;-73
2022/12/14 09:31:13;;;;;;;37.60;20.08;;;;;;;;;;6264011;28;20057;-70
2022/12/14 09:34:14;;;;;;;32.42;17.50;;;;;;;;;;6265647;28;20049;-72
2022/12/14 09:37:16;;;;;;;37.13;18.55;;;;;;;;;;6265852;28;20113;-73
2022/12/14 09:40:20;;;;;;;35.17;19.02;;;;;;;;;;6265330;28;20057;-73
2022/12/14 09:43:32;;;;;;;35.55;17.95;;;;;;;;;;6266443;28;20117;-73
2022/12/14 09:46:44;;;;;;;32.50;17.42;;;;;;;;;;6263706;28;20065;-74
2022/12/14 09:49:48;;;;;;;34.10;19.05;;;;;;;;;;6263296;28;20044;-75
2022/12/14 09:52:52;;;;;;;35.72;18.02;;;;;;;;;;6263011;28;20057;-72
2022/12/14 09:55:56;;;;;;;35.70;19.67;;;;;;;;;;6266623;28;20221;-73
2022/12/14 09:59:00;;;;;;;36.90;19.00;;;;;;;;;;6263047;28;20491;-73
2022/12/14 10:02:23;;;;;;;33.17;17.35;;;;;;;;;;6266035;28;20045;-73
2022/12/14 10:05:37;;;;;;;37.15;18.55;;;;;;;;;;6265203;28;20045;-73
2022/12/14 10:08:42;;;;;;;40.47;19.10;;;;;;;;;;6268865;28;20057;-73
2022/12/14 10:11:52;;;;;;;38.88;18.67;;;;;;;;;;6271588;28;20117;-74
2022/12/14 10:15:04;;;;;;;36.15;18.75;;;;;;;;;;6267414;28;20240;-75
2022/12/14 10:18:21;;;;;;;35.95;18.40;;;;;;;;;;6267237;28;20049;-74
2022/12/14 10:21:23;;;;;;;34.42;19.33;;;;;;;;;;6270732;28;20063;-74
2022/12/14 10:24:28;;;;;;;36.85;19.42;;;;;;;;;;6264479;28;20060;-72
2022/12/14 10:27:33;;;;;;;36.08;19.85;;;;;;;;;;6270133;28;20095;-74
2022/12/14 10:30:36;;;;;;;40.15;19.52;;;;;;;;;;6270069;28;20277;-74
2022/12/14 10:33:42;;;;;;;45.85;20.40;;;;;;;;;;6267801;28;20055;-74
2022/12/14 10:36:51;;;;;;;37.85;19.33;;;;;;;;;;6268826;28;20348;-75
2022/12/14 10:40:02;;;;;;;41.15;20.40;;;;;;;;;;6265926;28;20095;-74
2022/12/14 10:43:17;;;;;;;35.97;19.08;;;;;;;;;;6268257;28;20108;-74
2022/12/14 10:46:22;;;;;;;36.33;19.88;;;;;;;;;;6267354;28;20045;-74
2022/12/14 10:49:29;;;;;;;34.47;19.60;;;;;;;;;;6263522;28;20049;-74
2022/12/14 10:52:36;;;;;;;36.60;18.83;;;;;;;;;;6263774;28;20056;-74
2022/12/14 10:55:40;;;;;;;33.00;18.27;;;;;;;;;;6263193;28;20397;-74
2022/12/14 10:58:46;;;;;;;36.35;18.77;;;;;;;;;;6260572;28;20061;-73
2022/12/14 11:01:52;;;;;;;36.63;21.20;;;;;;;;;;6259805;28;20045;-72
2022/12/14 11:04:55;;;;;;;41.60;20.27;;;;;;;;;;6262570;28;20046;-73
2022/12/14 11:07:58;;;;;;;34.90;20.45;;;;;;;;;;6263812;28;20045;-73
2022/12/14 11:11:08;;;;;;;34.90;19.25;;;;;;;;;;6264402;28;20053;-73
2022/12/14 11:14:15;;;;;;;32.90;18.35;;;;;;;;;;6264022;28;20079;-73
2022/12/14 11:17:30;;;;;;;37.80;18.92;;;;;;;;;;6256196;28;20325;-72
2022/12/14 11:20:34;;;;;;;32.92;18.38;;;;;;;;;;6249186;28;20340;-74
2022/12/14 11:23:37;;;;;;;32.03;17.73;;;;;;;;;;6247087;28;20063;-71
2022/12/14 11:26:40;;;;;;;34.93;19.47;;;;;;;;;;6262553;28;20064;-73
2022/12/14 11:29:46;;;;;;;33.05;19.63;;;;;;;;;;6263012;28;20529;-71
2022/12/14 11:32:49;;;;;;;36.75;20.15;;;;;;;;;;6270469;28;20089;-73
2022/12/14 11:35:52;;;;;;;39.17;22.50;;;;;;;;;;6267264;28;20060;-73
2022/12/14 11:38:57;;;;;;;35.17;19.77;;;;;;;;;;6267699;28;20285;-73
2022/12/14 11:42:01;;;;;;;35.88;20.55;;;;;;;;;;6265503;28;20060;-73
2022/12/14 11:48:38;;;;;;;41.78;22.10;;;;;;;;;;6299051;27;20134;-73
2022/12/14 11:51:54;;;;;;;40.90;21.10;;;;;;;;;;6289395;28;20049;-74
2022/12/14 11:55:11;;;;;;;38.17;21.63;;;;;;;;;;6287837;28;20099;-73
2022/12/14 11:58:16;;;;;;;40.22;22.67;;;;;;;;;;6287399;28;20103;-73
2022/12/14 12:01:23;;;;;;;41.75;20.83;;;;;;;;;;6287416;28;20114;-73
2022/12/14 12:04:26;;;;;;;36.30;20.95;;;;;;;;;;6282614;28;20070;-73
2022/12/14 12:07:31;;;;;;;39.97;22.30;;;;;;;;;;6286784;28;20122;-73
2022/12/14 12:10:38;;;;;;;39.35;21.52;;;;;;;;;;6275317;28;20057;-75
2022/12/14 12:13:41;;;;;;;34.75;20.63;;;;;;;;;;6289517;28;20047;-75
2022/12/14 12:16:44;;;;;;;42.78;21.90;;;;;;;;;;6285372;28;20268;-73
2022/12/14 12:19:51;;;;;;;36.60;20.48;;;;;;;;;;6284019;28;20305;-74
2022/12/14 12:22:57;;;;;;;38.38;21.88;;;;;;;;;;6281554;28;20056;-73
2022/12/14 12:26:00;;;;;;;38.83;21.88;;;;;;;;;;6287630;28;20099;-72
2022/12/14 12:29:06;;;;;;;37.00;21.55;;;;;;;;;;6284535;28;20161;-73
2022/12/14 12:32:12;;;;;;;36.75;21.23;;;;;;;;;;6282926;28;20065;-73
2022/12/14 12:35:18;;;;;;;35.00;20.77;;;;;;;;;;6282357;28;20041;-73
2022/12/14 12:38:30;;;;;;;37.08;21.80;;;;;;;;;;6282711;28;20056;-72
2022/12/14 12:41:40;;;;;;;35.72;21.15;;;;;;;;;;6277772;28;20049;-74
2022/12/14 12:44:46;;;;;;;37.42;20.88;;;;;;;;;;6283058;28;20401;-72
2022/12/14 12:47:52;;;;;;;36.17;21.27;;;;;;;;;;6297505;28;20353;-74
2022/12/14 12:51:00;;;;;;;39.45;22.67;;;;;;;;;;6303550;28;20107;-75
2022/12/14 12:54:07;;;;;;;40.60;22.45;;;;;;;;;;6301314;28;20052;-72
2022/12/14 12:57:11;;;;;;;41.78;21.98;;;;;;;;;;6306496;28;20267;-76
2022/12/14 13:00:15;;;;;;;;;;;;;;;;;;6291528;28;20328;-76
2022/12/14 13:03:20;;;;;;;43.90;23.10;;;;;;;;;;6288943;28;20085;-74
2022/12/14 13:06:27;;;;;;;41.63;22.88;;;;;;;;;;6291856;28;20048;-72
2022/12/14 13:09:37;;;;;;;45.92;23.35;;;;;;;;;;6289467;28;20308;-73
2022/12/14 13:12:42;;;;;;;45.35;23.83;;;;;;;;;;6292588;28;20394;-76
2022/12/14 13:15:47;;;;;;;46.10;22.85;;;;;;;;;;6291000;28;20095;-73
2022/12/14 13:18:52;;;;;;;40.08;22.40;;;;;;;;;;6291960;28;20620;-73
2022/12/14 13:21:54;;;;;;;;;;;;;;;;;;6291826;28;20041;-73
2022/12/14 13:24:58;;;;;;;37.30;20.08;;;;;;;;;;6291245;28;19925;-73
2022/12/14 13:28:23;;;;;;;35.05;20.48;;;;;;;;;;6288013;28;20059;-73
2022/12/14 13:31:34;;;;;;;41.00;21.88;;;;;;;;;;6286472;28;20064;-72
2022/12/14 13:34:46;;;;;;;45.22;23.65;;;;;;;;;;6289336;28;20320;-74
2022/12/14 13:37:57;;;;;;;40.30;22.48;;;;;;;;;;6290271;28;20059;-72
2022/12/14 13:41:10;;;;;;;33.63;20.52;;;;;;;;;;6290912;28;20079;-72
2022/12/14 13:44:35;;;;;;;39.03;20.77;;;;;;;;;;6290719;28;20095;-72
2022/12/14 13:47:39;;;;;;;35.60;20.58;;;;;;;;;;6289350;28;20052;-72
2022/12/14 13:50:41;;;;;;;37.10;19.98;;;;;;;;;;6288120;28;20048;-72
2022/12/14 13:53:46;;;;;;;35.30;20.58;;;;;;;;;;6290265;28;20044;-71
2022/12/14 13:56:47;;;;;;;37.67;20.23;;;;;;;;;;6288464;28;20041;-73
2022/12/14 13:59:52;;;;;;;37.08;20.23;;;;;;;;;;6286679;28;20072;-72
2022/12/14 14:02:53;;;;;;;39.75;20.50;;;;;;;;;;6286696;28;20359;-72
2022/12/14 14:05:56;;;;;;;40.45;22.00;;;;;;;;;;6288502;28;20147;-73
2022/12/14 14:09:02;;;;;;;40.03;20.80;;;;;;;;;;6285486;28;20343;-72
2022/12/14 14:12:04;;;;;;;41.28;23.33;;;;;;;;;;6284881;28;20049;-72
2022/12/14 14:15:20;;;;;;;40.53;21.75;;;;;;;;;;6286385;28;20305;-72
2022/12/14 14:18:25;;;;;;;36.83;22.52;;;;;;;;;;6287337;28;20107;-72
2022/12/14 14:21:33;;;;;;;39.45;22.42;;;;;;;;;;6286939;28;20045;-72
2022/12/14 14:25:00;;;;;;;44.58;22.63;;;;;;;;;;6285601;28;20130;-72
2022/12/14 14:28:04;;;;;;;40.22;21.50;;;;;;;;;;6283137;28;20052;-72
2022/12/14 14:31:06;;;;;;;33.90;20.35;;;;;;;;;;6285061;28;20209;-71
2022/12/14 14:34:17;;;;;;;41.78;21.92;;;;;;;;;;6285582;28;20341;-72
2022/12/14 14:37:29;;;;;;;38.55;21.45;;;;;;;;;;6286995;28;20048;-72
2022/12/14 14:40:33;;;;;;;33.67;19.35;;;;;;;;;;6288750;28;20053;-72
2022/12/14 14:43:36;;;;;;;35.63;19.00;;;;;;;;;;6282986;28;20040;-72
2022/12/14 14:46:41;;;;;;;38.73;19.83;;;;;;;;;;6287675;28;20056;-72
2022/12/14 14:49:42;;;;;;;;;;;;;;;;;;6286945;28;20063;-71
2022/12/14 14:52:46;;;;;;;37.35;19.17;;;;;;;;;;6284194;28;19936;-74
2022/12/14 14:55:58;;;;;;;35.83;21.45;;;;;;;;;;6283254;28;20052;-74
2022/12/14 14:59:38;;;;;;;36.38;20.33;;;;;;;;;;6284605;28;20056;-74
2022/12/14 15:02:41;;;;;;;44.05;20.88;;;;;;;;;;6282881;28;20045;-75
2022/12/14 15:05:43;;;;;;;35.63;21.25;;;;;;;;;;6286290;28;20052;-74
2022/12/14 15:08:46;;;;;;;39.75;20.25;;;;;;;;;;6286632;28;20478;-74
2022/12/14 15:11:52;;;;;;;36.70;21.60;;;;;;;;;;6285755;28;20057;-74
2022/12/14 15:14:57;;;;;;;33.38;19.90;;;;;;;;;;6283276;28;20052;-74
2022/12/14 15:18:14;;;;;;;38.40;21.27;;;;;;;;;;6283541;28;20065;-74
2022/12/14 15:21:17;;;;;;;38.40;22.05;;;;;;;;;;6283647;28;20102;-75
2022/12/14 15:24:19;;;;;;;36.60;21.13;;;;;;;;;;6285352;28;20048;-74
2022/12/14 15:27:26;;;;;;;38.60;21.55;;;;;;;;;;6285584;28;20063;-74
2022/12/14 15:30:29;;;;;;;44.80;21.73;;;;;;;;;;6281736;28;20082;-70
2022/12/14 15:33:33;;;;;;;40.17;22.70;;;;;;;;;;6283055;28;20210;-70
2022/12/14 15:36:38;;;;;;;40.53;22.20;;;;;;;;;;6287671;28;20071;-73
2022/12/14 15:39:43;;;;;;;47.15;22.23;;;;;;;;;;6283384;28;20040;-74
2022/12/14 15:42:47;;;;;;;38.38;21.05;;;;;;;;;;6284282;28;20236;-73
2022/12/14 15:45:52;;;;;;;36.00;20.90;;;;;;;;;;6285391;28;20053;-74
2022/12/14 15:48:56;;;;;;;37.40;20.95;;;;;;;;;;6283714;28;20049;-74
2022/12/14 15:51:58;;;;;;;38.95;20.83;;;;;;;;;;6282921;28;20325;-75
2022/12/14 15:55:00;;;;;;;41.17;21.92;;;;;;;;;;6285732;28;20053;-72
2022/12/14 15:58:09;;;;;;;35.13;20.27;;;;;;;;;;6283379;28;20044;-72
2022/12/14 16:01:13;;;;;;;41.47;22.05;;;;;;;;;;6281904;28;20228;-73
2022/12/14 16:04:17;;;;;;;38.10;21.80;;;;;;;;;;6285361;28;20056;-72
2022/12/14 16:07:19;;;;;;;;;;;;;;;;;;6282925;28;20048;-72
2022/12/14 16:10:24;;;;;;;33.60;20.75;;;;;;;;;;6285182;28;19925;-73
2022/12/14 16:13:30;;;;;;;43.53;22.67;;;;;;;;;;6284519;28;20341;-73
2022/12/14 16:16:32;;;;;;;41.22;22.52;;;;;;;;;;6285931;28;20236;-74
2022/12/14 16:19:35;;;;;;;40.47;21.52;;;;;;;;;;6282905;28;20336;-73
2022/12/14 16:22:39;;;;;;;38.70;21.55;;;;;;;;;;6285371;28;20359;-72
2022/12/14 16:25:50;;;;;;;51.03;24.05;;;;;;;;;;6280368;28;20055;-71
2022/12/14 16:29:08;;;;;;;43.05;23.52;;;;;;;;;;6283317;28;20321;-71
2022/12/14 16:32:15;;;;;;;47.28;23.92;;;;;;;;;;6283665;28;20052;-72
2022/12/14 16:35:19;;;;;;;46.85;23.50;;;;;;;;;;6286408;28;20052;-73
2022/12/14 16:38:21;;;;;;;46.92;23.88;;;;;;;;;;6288952;28;20057;-72
2022/12/14 16:41:34;;;;;;;46.85;23.05;;;;;;;;;;6293020;28;20109;-74
2022/12/14 16:44:39;;;;;;;53.63;24.70;;;;;;;;;;6286555;28;20049;-72
2022/12/14 16:48:01;;;;;;;44.40;25.88;;;;;;;;;;6287458;28;20063;-72
2022/12/14 16:51:20;;;;;;;45.42;24.45;;;;;;;;;;6289769;28;20389;-72
2022/12/14 16:54:25;;;;;;;46.00;25.38;;;;;;;;;;6289126;28;20336;-72
2022/12/14 16:57:26;;;;;;;43.95;25.33;;;;;;;;;;6287726;28;20052;-73
2022/12/14 17:00:31;;;;;;;42.33;25.00;;;;;;;;;;6287383;28;20059;-73
2022/12/14 17:03:33;;;;;;;45.42;26.85;;;;;;;;;;6285098;28;20048;-72
2022/12/14 17:06:40;;;;;;;50.85;27.00;;;;;;;;;;6289961;28;20072;-72
2022/12/14 17:09:41;;;;;;;48.25;24.92;;;;;;;;;;6288533;28;20048;-72
2022/12/14 17:12:44;;;;;;;46.83;25.88;;;;;;;;;;6288426;28;20103;-73
2022/12/14 17:15:57;;;;;;;47.53;25.73;;;;;;;;;;6289454;28;20129;-72
2022/12/14 17:18:59;;;;;;;46.27;25.40;;;;;;;;;;6286052;28;20064;-72
2022/12/14 17:22:03;;;;;;;44.42;24.13;;;;;;;;;;6286728;28;20150;-73
2022/12/14 17:25:06;;;;;;;42.03;23.98;;;;;;;;;;6292089;28;20063;-72
2022/12/14 17:28:19;;;;;;;43.38;23.88;;;;;;;;;;6287856;28;20336;-72
2022/12/14 17:31:24;;;;;;;41.43;23.50;;;;;;;;;;6288259;28;20167;-72
2022/12/14 17:34:26;;;;;;;50.30;24.92;;;;;;;;;;6286439;28;20048;-72
2022/12/14 17:37:28;;;;;;;43.35;24.70;;;;;;;;;;6288240;28;20055;-72
2022/12/14 17:40:30;;;;;;;50.10;24.67;;;;;;;;;;6284543;28;20044;-73
2022/12/14 17:43:32;;;;;;;47.05;24.15;;;;;;;;;;6283029;28;20053;-72
2022/12/14 17:46:35;;;;;;;48.97;25.15;;;;;;;;;;6285487;28;20049;-72
2022/12/14 17:49:38;;;;;;;44.95;24.67;;;;;;;;;;6290484;28;20102;-75
2022/12/14 17:52:39;;;;;;;47.47;25.50;;;;;;;;;;6287421;28;21245;-74
2022/12/14 17:55:41;;;;;;;45.58;24.42;;;;;;;;;;6286582;28;20249;-74
2022/12/14 17:58:44;;;;;;;46.83;25.63;;;;;;;;;;6290618;28;20095;-74
2022/12/14 18:01:47;;;;;;;50.72;25.17;;;;;;;;;;6283180;28;20063;-74
2022/12/14 18:04:50;;;;;;;45.13;24.98;;;;;;;;;;6287263;28;20053;-74
2022/12/14 18:07:52;;;;;;;46.95;23.45;;;;;;;;;;6285032;28;20068;-74
2022/12/14 18:10:56;;;;;;;48.25;25.60;;;;;;;;;;6288286;28;20048;-74
2022/12/14 18:13:58;;;;;;;42.70;22.98;;;;;;;;;;6282551;28;20049;-74